Time;durP1;ratioP1;P1;durP2;ratioP2;P2;SDS_P1;SDS_P2;PMS_P1;PMS_P2;Temp;Humidity;BMP_temperature;BMP_pressure;BME280_temperature;BME280_humidity;BME280_pressure;Samples;Min_cycle;Max_cycle;Signal;HPM_P1;HPM_P2
2020/12/26 00:01:10;;;;;;;3.28;2.93;;;;;;;19.07;49.08;101238.42;;;;-55
2020/12/26 00:04:10;;;;;;;3.90;3.15;;;;;;;19.04;49.05;101236.92;;;;-52
2020/12/26 00:07:10;;;;;;;3.21;2.89;;;;;;;19.02;49.16;101239.96;;;;-51
2020/12/26 00:10:10;;;;;;;3.13;2.83;;;;;;;19.02;49.08;101240.45;;;;-52
2020/12/26 00:13:10;;;;;;;3.28;2.98;;;;;;;19.00;49.08;101242.11;;;;-49
2020/12/26 00:16:10;;;;;;;3.17;2.83;;;;;;;18.97;49.13;101246.13;;;;-52
2020/12/26 00:19:14;;;;;;;3.19;2.89;;;;;;;18.95;49.10;101256.48;;;;-51
2020/12/26 00:22:10;;;;;;;3.39;3.02;;;;;;;18.94;49.15;101252.54;;;;-52
2020/12/26 00:25:10;;;;;;;3.83;2.99;;;;;;;18.92;49.11;101255.26;;;;-55
2020/12/26 00:28:11;;;;;;;3.30;2.90;;;;;;;18.91;49.13;101255.49;;;;-49
2020/12/26 00:31:10;;;;;;;3.31;2.91;;;;;;;18.89;49.10;101256.42;;;;-52
2020/12/26 00:34:10;;;;;;;3.36;3.06;;;;;;;18.87;49.16;101255.81;;;;-51
2020/12/26 00:37:10;;;;;;;3.53;3.17;;;;;;;18.86;49.18;101255.77;;;;-52
2020/12/26 00:40:10;;;;;;;3.46;3.06;;;;;;;18.85;49.18;101267.14;;;;-49
2020/12/26 00:43:10;;;;;;;3.63;3.01;;;;;;;18.83;49.18;101269.20;;;;-49
2020/12/26 00:46:10;;;;;;;3.13;2.83;;;;;;;18.81;49.25;101272.90;;;;-51
2020/12/26 00:49:10;;;;;;;3.24;2.94;;;;;;;18.80;49.23;101276.14;;;;-51
2020/12/26 00:52:10;;;;;;;3.21;2.89;;;;;;;18.78;49.22;101279.72;;;;-51
2020/12/26 00:55:10;;;;;;;3.34;3.03;;;;;;;18.76;49.25;101281.13;;;;-53
2020/12/26 00:58:10;;;;;;;3.40;3.05;;;;;;;18.76;49.21;101285.97;;;;-51
2020/12/26 01:01:10;;;;;;;3.27;2.97;;;;;;;18.74;49.23;101288.20;;;;-54
2020/12/26 01:04:10;;;;;;;3.27;2.95;;;;;;;18.71;49.29;101282.06;;;;-55
2020/12/26 01:07:10;;;;;;;3.27;2.97;;;;;;;18.70;49.27;101285.46;;;;-54
2020/12/26 01:10:10;;;;;;;3.42;3.12;;;;;;;18.68;49.30;101288.91;;;;-55
2020/12/26 01:13:10;;;;;;;3.45;3.11;;;;;;;18.67;49.32;101290.97;;;;-51
2020/12/26 01:16:10;;;;;;;3.63;3.17;;;;;;;18.65;49.35;101291.17;;;;-51
2020/12/26 01:19:10;;;;;;;3.24;2.94;;;;;;;18.64;49.31;101296.44;;;;-51
2020/12/26 01:22:10;;;;;;;3.35;3.05;;;;;;;18.62;49.35;101297.70;;;;-49
2020/12/26 01:25:10;;;;;;;3.27;2.95;;;;;;;18.62;49.32;101297.94;;;;-52
2020/12/26 01:28:10;;;;;;;3.20;2.90;;;;;;;18.60;49.32;101301.78;;;;-52
2020/12/26 01:31:10;;;;;;;3.33;3.03;;;;;;;18.58;49.35;101303.86;;;;-51
2020/12/26 01:34:10;;;;;;;3.37;2.99;;;;;;;18.57;49.32;101306.08;;;;-49
2020/12/26 01:37:10;;;;;;;3.55;2.91;;;;;;;18.55;49.33;101302.50;;;;-49
2020/12/26 01:40:10;;;;;;;3.23;2.93;;;;;;;18.54;49.34;101295.31;;;;-49
2020/12/26 01:43:10;;;;;;;3.40;3.10;;;;;;;18.53;49.30;101296.36;;;;-55
2020/12/26 01:46:10;;;;;;;3.35;3.05;;;;;;;18.52;49.31;101301.44;;;;-49
2020/12/26 01:49:10;;;;;;;3.76;3.06;;;;;;;18.51;49.36;101299.61;;;;-55
2020/12/26 01:52:10;;;;;;;3.30;3.00;;;;;;;18.50;49.34;101303.98;;;;-51
2020/12/26 01:55:10;;;;;;;3.42;3.06;;;;;;;18.48;49.28;101304.58;;;;-51
2020/12/26 01:58:10;;;;;;;3.13;2.86;;;;;;;18.47;49.37;101306.16;;;;-54
2020/12/26 02:01:10;;;;;;;3.44;3.14;;;;;;;18.46;49.37;101312.41;;;;-55
2020/12/26 02:04:10;;;;;;;3.34;3.04;;;;;;;18.44;49.42;101318.04;;;;-55
2020/12/26 02:07:10;;;;;;;3.39;3.09;;;;;;;18.45;49.37;101329.44;;;;-55
2020/12/26 02:10:10;;;;;;;3.37;3.07;;;;;;;18.44;49.42;101338.73;;;;-49
2020/12/26 02:13:10;;;;;;;3.29;2.99;;;;;;;18.42;49.39;101335.59;;;;-49
2020/12/26 02:16:13;;;;;;;3.39;3.09;;;;;;;18.41;49.36;101334.09;;;;-51
2020/12/26 02:19:10;;;;;;;3.37;3.07;;;;;;;18.40;49.41;101334.08;;;;-51
2020/12/26 02:22:10;;;;;;;3.31;2.98;;;;;;;18.39;49.42;101336.44;;;;-52
2020/12/26 02:25:10;;;;;;;3.41;3.11;;;;;;;18.37;49.37;101333.55;;;;-49
2020/12/26 02:28:10;;;;;;;3.43;3.13;;;;;;;18.36;49.38;101332.08;;;;-51
2020/12/26 02:31:10;;;;;;;3.54;3.12;;;;;;;18.35;49.32;101327.41;;;;-51
2020/12/26 02:34:10;;;;;;;3.39;3.09;;;;;;;18.34;49.39;101332.19;;;;-51
2020/12/26 02:37:10;;;;;;;3.51;3.21;;;;;;;18.32;49.34;101326.25;;;;-51
2020/12/26 02:40:10;;;;;;;4.02;3.10;;;;;;;18.31;49.39;101325.92;;;;-50
2020/12/26 02:43:10;;;;;;;3.20;2.90;;;;;;;18.31;49.43;101329.73;;;;-51
2020/12/26 02:46:10;;;;;;;3.40;3.10;;;;;;;18.30;49.40;101330.42;;;;-51
2020/12/26 02:49:10;;;;;;;3.34;3.04;;;;;;;18.28;49.42;101327.48;;;;-51
2020/12/26 02:52:10;;;;;;;3.61;3.27;;;;;;;18.28;49.41;101339.38;;;;-51
2020/12/26 02:55:10;;;;;;;3.35;3.05;;;;;;;18.27;49.39;101346.27;;;;-52
2020/12/26 02:58:10;;;;;;;3.89;3.18;;;;;;;18.27;49.40;101358.27;;;;-51
2020/12/26 03:01:10;;;;;;;3.23;2.93;;;;;;;18.25;49.39;101359.11;;;;-51
2020/12/26 03:04:10;;;;;;;3.35;3.05;;;;;;;18.24;49.37;101357.85;;;;-51
2020/12/26 03:07:10;;;;;;;3.31;3.01;;;;;;;18.23;49.34;101356.47;;;;-49
2020/12/26 03:10:10;;;;;;;3.39;3.09;;;;;;;18.22;49.39;101359.87;;;;-49
2020/12/26 03:13:10;;;;;;;3.51;3.19;;;;;;;18.21;49.42;101365.26;;;;-49
2020/12/26 03:16:10;;;;;;;3.34;3.04;;;;;;;18.20;49.42;101365.78;;;;-51
2020/12/26 03:19:10;;;;;;;3.61;3.31;;;;;;;18.19;49.43;101366.83;;;;-51
2020/12/26 03:22:10;;;;;;;3.35;3.05;;;;;;;18.18;49.48;101371.12;;;;-51
2020/12/26 03:25:11;;;;;;;3.99;3.04;;;;;;;18.17;49.46;101363.94;;;;-51
2020/12/26 03:28:10;;;;;;;3.58;3.01;;;;;;;18.16;49.47;101359.05;;;;-51
2020/12/26 03:31:10;;;;;;;3.43;3.13;;;;;;;18.15;49.38;101357.55;;;;-51
2020/12/26 03:34:10;;;;;;;3.76;3.36;;;;;;;18.14;49.41;101357.47;;;;-51
2020/12/26 03:37:10;;;;;;;3.50;3.20;;;;;;;18.14;49.47;101361.11;;;;-51
2020/12/26 03:40:10;;;;;;;3.39;3.09;;;;;;;18.13;49.43;101361.23;;;;-52
2020/12/26 03:43:10;;;;;;;3.59;3.28;;;;;;;18.12;49.47;101354.57;;;;-51
2020/12/26 03:46:10;;;;;;;3.59;3.29;;;;;;;18.12;49.49;101345.80;;;;-51
2020/12/26 03:49:10;;;;;;;3.37;3.07;;;;;;;18.10;49.43;101339.10;;;;-51
2020/12/26 03:52:10;;;;;;;3.56;3.05;;;;;;;18.10;49.46;101338.45;;;;-52
2020/12/26 03:55:10;;;;;;;3.60;3.29;;;;;;;18.08;49.53;101337.19;;;;-51
2020/12/26 03:58:10;;;;;;;3.40;3.10;;;;;;;18.08;49.53;101331.09;;;;-51
2020/12/26 04:01:10;;;;;;;3.53;3.23;;;;;;;18.07;49.45;101344.77;;;;-51
2020/12/26 04:04:10;;;;;;;3.25;2.95;;;;;;;18.06;49.43;101349.30;;;;-52
2020/12/26 04:07:10;;;;;;;3.39;3.09;;;;;;;18.05;49.37;101348.20;;;;-51
2020/12/26 04:10:10;;;;;;;3.54;3.19;;;;;;;18.03;49.48;101351.27;;;;-51
2020/12/26 04:13:10;;;;;;;3.59;3.29;;;;;;;18.03;49.42;101344.82;;;;-51
2020/12/26 04:16:10;;;;;;;3.34;2.98;;;;;;;18.03;49.43;101347.17;;;;-52
2020/12/26 04:19:10;;;;;;;3.49;3.19;;;;;;;18.02;49.46;101350.48;;;;-51
2020/12/26 04:22:10;;;;;;;3.64;3.33;;;;;;;18.01;49.47;101354.02;;;;-51
2020/12/26 04:25:10;;;;;;;3.58;3.28;;;;;;;18.00;49.52;101354.16;;;;-51
2020/12/26 04:28:10;;;;;;;3.59;3.29;;;;;;;17.97;49.47;101354.10;;;;-51
2020/12/26 04:31:10;;;;;;;3.85;3.45;;;;;;;17.98;49.46;101360.27;;;;-51
2020/12/26 04:34:10;;;;;;;3.33;3.03;;;;;;;17.97;49.49;101363.31;;;;-51
2020/12/26 04:37:10;;;;;;;3.47;3.14;;;;;;;17.96;49.44;101354.63;;;;-51
2020/12/26 04:40:10;;;;;;;3.89;3.21;;;;;;;17.96;49.48;101349.51;;;;-52
2020/12/26 04:43:10;;;;;;;3.75;3.43;;;;;;;17.95;49.37;101350.64;;;;-51
2020/12/26 04:46:10;;;;;;;3.59;3.29;;;;;;;17.95;49.44;101352.30;;;;-51
2020/12/26 04:49:10;;;;;;;4.43;3.36;;;;;;;17.94;49.58;101349.21;;;;-51
2020/12/26 04:52:10;;;;;;;3.57;3.27;;;;;;;17.92;49.43;101346.23;;;;-51
2020/12/26 04:55:10;;;;;;;3.47;3.17;;;;;;;17.91;49.58;101342.02;;;;-51
2020/12/26 04:58:10;;;;;;;3.77;3.31;;;;;;;17.91;49.50;101344.20;;;;-51
2020/12/26 05:01:10;;;;;;;3.57;3.26;;;;;;;17.90;49.47;101346.34;;;;-51
2020/12/26 05:04:10;;;;;;;3.87;3.45;;;;;;;17.89;49.54;101347.23;;;;-51
2020/12/26 05:07:11;;;;;;;3.49;3.19;;;;;;;17.88;49.49;101338.83;;;;-49
2020/12/26 05:10:10;;;;;;;3.68;3.38;;;;;;;17.88;49.51;101342.96;;;;-51
2020/12/26 05:13:10;;;;;;;3.81;3.40;;;;;;;17.87;49.53;101348.15;;;;-54
2020/12/26 05:16:10;;;;;;;3.54;3.22;;;;;;;17.87;49.44;101356.34;;;;-51
2020/12/26 05:19:10;;;;;;;3.57;3.24;;;;;;;17.86;49.53;101351.92;;;;-49
2020/12/26 05:22:10;;;;;;;3.28;2.98;;;;;;;17.85;49.40;101342.98;;;;-49
2020/12/26 05:25:10;;;;;;;3.71;3.37;;;;;;;17.85;49.60;101341.84;;;;-54
2020/12/26 05:28:10;;;;;;;3.47;3.17;;;;;;;17.84;49.67;101345.13;;;;-51
2020/12/26 05:31:11;;;;;;;3.54;3.24;;;;;;;17.83;49.64;101346.66;;;;-51
2020/12/26 05:34:10;;;;;;;3.76;3.43;;;;;;;17.82;49.52;101341.23;;;;-52
2020/12/26 05:37:10;;;;;;;3.47;3.15;;;;;;;17.82;49.64;101332.39;;;;-54
2020/12/26 05:40:10;;;;;;;3.55;3.21;;;;;;;17.80;49.58;101341.17;;;;-49
2020/12/26 05:43:10;;;;;;;3.36;3.06;;;;;;;17.80;49.52;101351.63;;;;-55
2020/12/26 05:46:10;;;;;;;3.50;3.19;;;;;;;17.79;49.44;101356.73;;;;-55
2020/12/26 05:49:10;;;;;;;3.99;2.99;;;;;;;17.78;49.58;101348.25;;;;-54
2020/12/26 05:52:10;;;;;;;3.61;3.25;;;;;;;17.79;49.37;101349.27;;;;-54
2020/12/26 05:55:10;;;;;;;3.50;3.20;;;;;;;17.78;49.66;101358.55;;;;-49
2020/12/26 05:58:10;;;;;;;3.72;3.25;;;;;;;17.77;49.51;101358.45;;;;-55
2020/12/26 06:01:10;;;;;;;3.61;3.31;;;;;;;17.76;49.52;101355.73;;;;-54
2020/12/26 06:04:10;;;;;;;3.38;3.08;;;;;;;17.76;49.50;101350.62;;;;-51
2020/12/26 06:07:10;;;;;;;3.68;3.38;;;;;;;17.75;49.43;101352.08;;;;-55
2020/12/26 06:10:10;;;;;;;3.94;3.33;;;;;;;17.74;49.64;101355.39;;;;-49
2020/12/26 06:13:10;;;;;;;3.49;3.13;;;;;;;17.75;49.48;101357.42;;;;-49
2020/12/26 06:16:10;;;;;;;3.55;3.25;;;;;;;17.75;49.55;101356.53;;;;-51
2020/12/26 06:19:10;;;;;;;3.82;3.38;;;;;;;17.76;49.56;101363.59;;;;-49
2020/12/26 06:22:10;;;;;;;3.61;3.29;;;;;;;17.77;49.57;101360.97;;;;-49
2020/12/26 06:25:10;;;;;;;3.55;3.25;;;;;;;17.77;49.66;101361.86;;;;-54
2020/12/26 06:28:10;;;;;;;3.49;3.19;;;;;;;17.78;49.64;101364.63;;;;-54
2020/12/26 06:31:10;;;;;;;3.47;3.17;;;;;;;17.81;49.56;101365.63;;;;-51
2020/12/26 06:34:10;;;;;;;3.65;3.35;;;;;;;17.83;49.58;101366.84;;;;-51
2020/12/26 06:37:10;;;;;;;3.39;2.95;;;;;;;17.84;49.83;101366.05;;;;-51
2020/12/26 06:40:10;;;;;;;3.55;3.20;;;;;;;17.87;49.88;101376.03;;;;-51
2020/12/26 06:43:10;;;;;;;3.36;3.06;;;;;;;17.89;49.83;101375.45;;;;-49
2020/12/26 06:46:10;;;;;;;3.13;2.83;;;;;;;17.92;49.93;101370.40;;;;-49
2020/12/26 06:49:10;;;;;;;3.52;3.11;;;;;;;17.95;49.87;101373.59;;;;-50
2020/12/26 06:52:10;;;;;;;3.34;3.02;;;;;;;17.98;49.96;101375.77;;;;-55
2020/12/26 06:55:10;;;;;;;3.37;3.05;;;;;;;18.02;49.93;101375.63;;;;-49
2020/12/26 06:58:10;;;;;;;3.48;3.14;;;;;;;18.05;49.95;101379.38;;;;-49
2020/12/26 07:01:10;;;;;;;3.37;3.07;;;;;;;18.09;49.93;101373.37;;;;-51
2020/12/26 07:04:10;;;;;;;3.27;2.97;;;;;;;18.12;49.93;101364.22;;;;-51
2020/12/26 07:07:10;;;;;;;3.49;3.19;;;;;;;18.14;49.91;101361.20;;;;-51
2020/12/26 07:10:10;;;;;;;3.42;3.03;;;;;;;18.16;49.95;101356.95;;;;-52
2020/12/26 07:13:10;;;;;;;3.22;2.92;;;;;;;18.18;49.90;101355.54;;;;-51
2020/12/26 07:16:10;;;;;;;3.30;3.00;;;;;;;18.20;49.97;101357.02;;;;-55
2020/12/26 07:19:10;;;;;;;3.35;2.91;;;;;;;18.22;49.93;101354.23;;;;-56
2020/12/26 07:22:10;;;;;;;3.19;2.89;;;;;;;18.22;49.87;101349.97;;;;-56
2020/12/26 07:25:10;;;;;;;3.43;3.13;;;;;;;18.23;49.85;101338.70;;;;-55
2020/12/26 07:28:10;;;;;;;3.21;2.91;;;;;;;18.24;49.88;101339.27;;;;-55
2020/12/26 07:31:10;;;;;;;3.17;2.87;;;;;;;18.25;49.81;101346.21;;;;-56
2020/12/26 07:34:10;;;;;;;3.33;3.03;;;;;;;18.25;49.77;101344.59;;;;-51
2020/12/26 07:37:10;;;;;;;3.01;2.71;;;;;;;18.25;49.83;101347.75;;;;-52
2020/12/26 07:40:10;;;;;;;3.39;3.07;;;;;;;18.25;49.77;101347.84;;;;-51
2020/12/26 07:43:10;;;;;;;3.35;3.05;;;;;;;18.25;49.82;101343.87;;;;-51
2020/12/26 07:46:10;;;;;;;3.28;2.79;;;;;;;18.26;49.74;101347.11;;;;-55
2020/12/26 07:49:10;;;;;;;3.28;2.98;;;;;;;18.25;49.86;101343.78;;;;-51
2020/12/26 07:52:10;;;;;;;3.29;2.99;;;;;;;18.25;49.82;101342.81;;;;-55
2020/12/26 07:55:10;;;;;;;3.30;2.99;;;;;;;18.25;49.77;101344.67;;;;-51
2020/12/26 07:58:10;;;;;;;3.20;2.90;;;;;;;18.24;49.73;101348.16;;;;-56
2020/12/26 08:01:10;;;;;;;3.22;2.92;;;;;;;18.24;49.85;101349.34;;;;-55
2020/12/26 08:04:10;;;;;;;3.17;2.81;;;;;;;18.24;49.67;101353.83;;;;-51
2020/12/26 08:07:10;;;;;;;3.11;2.81;;;;;;;18.24;49.84;101353.02;;;;-49
2020/12/26 08:10:10;;;;;;;3.10;2.80;;;;;;;18.24;49.80;101355.58;;;;-56
2020/12/26 08:13:10;;;;;;;3.19;2.89;;;;;;;18.24;49.83;101361.45;;;;-49
2020/12/26 08:16:10;;;;;;;3.21;2.90;;;;;;;18.23;49.85;101365.55;;;;-49
2020/12/26 08:19:10;;;;;;;3.31;3.01;;;;;;;18.22;49.82;101364.48;;;;-49
2020/12/26 08:22:10;;;;;;;3.15;2.83;;;;;;;18.22;49.75;101367.98;;;;-49
2020/12/26 08:25:10;;;;;;;3.36;3.06;;;;;;;18.22;49.73;101369.48;;;;-51
2020/12/26 08:28:10;;;;;;;3.10;2.80;;;;;;;18.21;49.70;101369.08;;;;-49
2020/12/26 08:31:10;;;;;;;3.19;2.89;;;;;;;18.21;49.71;101369.55;;;;-55
2020/12/26 08:34:10;;;;;;;3.47;2.93;;;;;;;18.20;49.59;101372.39;;;;-49
2020/12/26 08:37:10;;;;;;;3.29;2.99;;;;;;;18.20;49.62;101375.63;;;;-52
2020/12/26 08:40:10;;;;;;;5.25;3.21;;;;;;;18.20;49.95;101375.19;;;;-51
2020/12/26 08:43:10;;;;;;;3.39;2.89;;;;;;;18.21;49.78;101379.29;;;;-51
2020/12/26 08:46:10;;;;;;;3.45;3.11;;;;;;;18.21;49.95;101375.64;;;;-57
2020/12/26 08:49:10;;;;;;;3.35;3.00;;;;;;;18.22;49.91;101371.02;;;;-56
2020/12/26 08:52:10;;;;;;;3.35;2.86;;;;;;;18.22;49.89;101369.20;;;;-60
2020/12/26 08:55:10;;;;;;;3.17;2.60;;;;;;;18.23;49.93;101376.43;;;;-56
2020/12/26 08:58:10;;;;;;;5.18;2.86;;;;;;;18.25;50.33;101384.10;;;;-53
2020/12/26 09:01:10;;;;;;;5.94;2.78;;;;;;;18.26;50.11;101397.70;;;;-51
2020/12/26 09:04:10;;;;;;;4.27;3.09;;;;;;;18.26;50.03;101400.05;;;;-49
2020/12/26 09:07:10;;;;;;;3.51;2.83;;;;;;;18.26;49.99;101405.81;;;;-51
2020/12/26 09:10:10;;;;;;;9.12;2.98;;;;;;;18.26;50.08;101403.70;;;;-51
2020/12/26 09:13:10;;;;;;;3.31;2.67;;;;;;;18.28;50.12;101400.03;;;;-56
2020/12/26 09:16:10;;;;;;;3.82;2.76;;;;;;;18.32;50.37;101399.53;;;;-53
2020/12/26 09:19:10;;;;;;;3.93;2.83;;;;;;;18.37;50.01;101397.16;;;;-52
2020/12/26 09:22:10;;;;;;;4.81;2.71;;;;;;;18.40;49.92;101400.47;;;;-54
2020/12/26 09:25:10;;;;;;;2.96;2.66;;;;;;;18.42;49.93;101400.53;;;;-54
2020/12/26 09:28:10;;;;;;;3.19;2.61;;;;;;;18.45;49.92;101404.80;;;;-54
2020/12/26 09:31:10;;;;;;;3.38;2.75;;;;;;;18.47;49.89;101410.09;;;;-54
2020/12/26 09:34:10;;;;;;;3.05;2.69;;;;;;;18.49;49.90;101412.66;;;;-52
2020/12/26 09:37:10;;;;;;;3.39;2.69;;;;;;;18.53;50.28;101413.09;;;;-56
2020/12/26 09:40:10;;;;;;;2.77;2.50;;;;;;;18.55;50.55;101416.06;;;;-51
2020/12/26 09:43:10;;;;;;;3.33;2.61;;;;;;;18.59;50.77;101420.06;;;;-51
2020/12/26 09:46:10;;;;;;;2.89;2.61;;;;;;;18.63;50.84;101413.72;;;;-57
2020/12/26 09:49:10;;;;;;;6.07;2.77;;;;;;;18.70;50.77;101417.00;;;;-54
2020/12/26 09:52:10;;;;;;;4.27;2.46;;;;;;;18.71;50.43;101414.90;;;;-48
2020/12/26 09:55:10;;;;;;;5.68;2.39;;;;;;;18.76;50.78;101424.67;;;;-53
2020/12/26 09:58:10;;;;;;;3.16;2.47;;;;;;;18.80;50.78;101420.20;;;;-52
2020/12/26 10:01:10;;;;;;;3.83;2.59;;;;;;;18.83;50.73;101414.81;;;;-55
2020/12/26 10:04:10;;;;;;;4.18;2.61;;;;;;;18.87;50.88;101416.70;;;;-50
2020/12/26 10:07:10;;;;;;;3.29;2.30;;;;;;;18.92;50.78;101416.97;;;;-56
2020/12/26 10:10:10;;;;;;;3.06;2.58;;;;;;;18.96;50.81;101424.47;;;;-60
2020/12/26 10:13:10;;;;;;;2.63;2.40;;;;;;;18.98;51.05;101417.13;;;;-51
2020/12/26 10:16:10;;;;;;;4.19;2.43;;;;;;;19.03;50.88;101413.68;;;;-52
2020/12/26 10:19:10;;;;;;;3.29;2.55;;;;;;;19.07;50.62;101408.83;;;;-51
2020/12/26 10:22:10;;;;;;;6.63;2.59;;;;;;;19.12;50.51;101411.28;;;;-54
2020/12/26 10:25:10;;;;;;;4.36;2.39;;;;;;;19.15;50.58;101414.17;;;;-57
2020/12/26 10:28:10;;;;;;;4.71;2.57;;;;;;;19.19;50.81;101413.05;;;;-54
2020/12/26 10:31:10;;;;;;;3.12;2.49;;;;;;;19.20;50.67;101408.14;;;;-50
2020/12/26 10:34:10;;;;;;;2.63;2.35;;;;;;;19.21;50.51;101400.75;;;;-58
2020/12/26 10:37:12;;;;;;;2.90;2.47;;;;;;;19.25;50.71;101401.81;;;;-59
2020/12/26 10:40:10;;;;;;;4.35;2.47;;;;;;;19.28;50.45;101398.38;;;;-53
2020/12/26 10:43:10;;;;;;;2.75;2.42;;;;;;;19.30;50.45;101392.73;;;;-55
2020/12/26 10:46:10;;;;;;;3.35;2.32;;;;;;;19.32;50.57;101390.50;;;;-57
2020/12/26 10:49:10;;;;;;;2.58;2.30;;;;;;;19.35;50.52;101388.80;;;;-51
2020/12/26 10:52:10;;;;;;;3.67;2.33;;;;;;;19.39;50.56;101382.05;;;;-52
2020/12/26 10:55:09;;;;;;;4.71;2.31;;;;;;;19.41;50.47;101381.61;;;;-51
2020/12/26 10:58:10;;;;;;;3.15;2.26;;;;;;;19.43;50.50;101374.58;;;;-53
2020/12/26 11:01:10;;;;;;;2.68;2.36;;;;;;;19.45;50.55;101369.91;;;;-50
2020/12/26 11:04:10;;;;;;;2.58;2.34;;;;;;;19.46;50.32;101369.42;;;;-53
2020/12/26 11:07:10;;;;;;;3.25;2.49;;;;;;;19.46;50.33;101363.17;;;;-48
2020/12/26 11:10:10;;;;;;;3.22;2.51;;;;;;;19.46;50.24;101369.67;;;;-54
2020/12/26 11:13:10;;;;;;;3.52;2.31;;;;;;;19.48;50.23;101371.58;;;;-55
2020/12/26 11:16:27;;;;;;;3.14;2.31;;;;;;;19.50;50.26;101364.31;;;;-42
2020/12/26 11:19:09;;;;;;;4.01;2.45;;;;;;;19.52;50.22;101367.60;;;;-46
2020/12/26 11:22:10;;;;;;;2.82;2.37;;;;;;;19.53;50.07;101364.68;;;;-47
2020/12/26 11:25:10;;;;;;;3.90;2.67;;;;;;;19.54;50.22;101352.44;;;;-50
2020/12/26 11:28:10;;;;;;;2.74;2.22;;;;;;;19.57;50.16;101355.20;;;;-53
2020/12/26 11:31:10;;;;;;;2.52;2.30;;;;;;;19.58;50.08;101350.41;;;;-57
2020/12/26 11:34:11;;;;;;;2.81;2.25;;;;;;;19.60;50.17;101346.63;;;;-56
2020/12/26 11:37:10;;;;;;;2.62;2.19;;;;;;;19.62;50.14;101350.41;;;;-59
2020/12/26 11:40:09;;;;;;;2.61;2.10;;;;;;;19.63;50.03;101346.79;;;;-58
2020/12/26 11:43:10;;;;;;;3.51;1.98;;;;;;;19.64;50.01;101340.86;;;;-57
2020/12/26 11:46:10;;;;;;;2.32;1.98;;;;;;;19.66;50.00;101343.34;;;;-58
2020/12/26 11:49:10;;;;;;;2.77;2.05;;;;;;;19.65;50.11;101341.63;;;;-56
2020/12/26 11:52:10;;;;;;;3.16;2.18;;;;;;;19.68;50.13;101340.37;;;;-56
2020/12/26 11:55:10;;;;;;;2.30;2.10;;;;;;;19.67;50.02;101331.50;;;;-55
2020/12/26 11:58:10;;;;;;;2.34;2.11;;;;;;;19.70;50.08;101331.63;;;;-55
2020/12/26 12:01:10;;;;;;;2.29;2.09;;;;;;;19.70;50.11;101336.34;;;;-57
2020/12/26 12:04:10;;;;;;;2.30;2.05;;;;;;;19.73;50.01;101332.34;;;;-60
2020/12/26 12:07:10;;;;;;;3.15;2.25;;;;;;;19.74;50.10;101329.14;;;;-53
2020/12/26 12:10:10;;;;;;;2.58;2.20;;;;;;;19.74;50.02;101325.64;;;;-54
2020/12/26 12:13:10;;;;;;;3.85;2.59;;;;;;;19.75;49.73;101313.77;;;;-60
2020/12/26 12:16:09;;;;;;;2.05;1.88;;;;;;;19.73;49.46;101309.25;;;;-60
2020/12/26 12:19:10;;;;;;;2.25;2.05;;;;;;;19.71;49.36;101304.41;;;;-60
2020/12/26 12:22:10;;;;;;;2.49;2.19;;;;;;;19.71;49.37;101290.67;;;;-59
2020/12/26 12:25:10;;;;;;;3.15;2.29;;;;;;;19.70;49.32;101286.00;;;;-60
2020/12/26 12:28:10;;;;;;;3.57;2.07;;;;;;;19.69;49.23;101281.73;;;;-59
2020/12/26 12:31:10;;;;;;;2.47;1.95;;;;;;;19.68;49.19;101283.85;;;;-58
2020/12/26 12:34:10;;;;;;;2.59;2.12;;;;;;;19.66;49.17;101273.73;;;;-59
2020/12/26 12:37:13;;;;;;;3.30;2.08;;;;;;;19.66;49.15;101277.79;;;;-58
2020/12/26 12:40:10;;;;;;;2.36;2.13;;;;;;;19.64;49.21;101274.42;;;;-58
2020/12/26 12:43:10;;;;;;;2.25;2.05;;;;;;;19.62;49.19;101273.24;;;;-58
2020/12/26 12:46:10;;;;;;;2.78;2.04;;;;;;;19.61;49.09;101273.73;;;;-60
2020/12/26 12:49:09;;;;;;;2.41;1.97;;;;;;;19.60;49.14;101275.23;;;;-58
2020/12/26 12:52:10;;;;;;;2.39;2.07;;;;;;;19.59;49.14;101274.66;;;;-58
2020/12/26 12:55:10;;;;;;;2.45;1.90;;;;;;;19.58;49.10;101274.06;;;;-58
2020/12/26 12:58:10;;;;;;;2.27;2.06;;;;;;;19.58;49.08;101273.90;;;;-58
2020/12/26 13:01:10;;;;;;;3.11;2.15;;;;;;;19.57;49.12;101271.27;;;;-58
2020/12/26 13:04:10;;;;;;;3.26;2.01;;;;;;;19.55;49.04;101265.00;;;;-58
2020/12/26 13:07:10;;;;;;;2.23;2.03;;;;;;;19.56;49.11;101269.88;;;;-59
2020/12/26 13:10:10;;;;;;;2.07;1.87;;;;;;;19.56;49.05;101257.59;;;;-60
2020/12/26 13:13:09;;;;;;;2.23;2.02;;;;;;;19.56;49.01;101251.26;;;;-58
2020/12/26 13:16:09;;;;;;;2.25;2.05;;;;;;;19.56;48.93;101246.87;;;;-52
2020/12/26 13:19:10;;;;;;;2.12;1.92;;;;;;;19.56;49.03;101244.18;;;;-52
2020/12/26 13:22:10;;;;;;;2.20;2.00;;;;;;;19.56;49.08;101237.36;;;;-52
2020/12/26 13:25:10;;;;;;;2.71;2.11;;;;;;;19.56;49.08;101238.82;;;;-53
2020/12/26 13:28:10;;;;;;;2.14;1.94;;;;;;;19.57;49.06;101233.97;;;;-52
2020/12/26 13:31:10;;;;;;;2.11;1.90;;;;;;;19.57;49.09;101235.76;;;;-52
2020/12/26 13:34:10;;;;;;;2.01;1.87;;;;;;;19.57;48.99;101231.53;;;;-51
2020/12/26 13:37:09;;;;;;;2.08;1.88;;;;;;;19.58;49.14;101232.19;;;;-51
2020/12/26 13:40:10;;;;;;;1.87;1.77;;;;;;;19.58;49.07;101222.27;;;;-52
2020/12/26 13:43:10;;;;;;;1.92;1.82;;;;;;;19.59;48.98;101214.17;;;;-51
2020/12/26 13:46:10;;;;;;;2.06;1.89;;;;;;;19.59;49.05;101210.92;;;;-51
2020/12/26 13:49:09;;;;;;;1.90;1.80;;;;;;;19.59;49.07;101208.69;;;;-52
2020/12/26 13:52:10;;;;;;;2.09;1.89;;;;;;;19.59;49.12;101212.87;;;;-59
2020/12/26 13:55:10;;;;;;;2.10;1.90;;;;;;;19.59;49.10;101210.31;;;;-58
2020/12/26 13:58:10;;;;;;;2.25;1.81;;;;;;;19.59;49.04;101211.33;;;;-58
2020/12/26 14:01:09;;;;;;;2.09;1.90;;;;;;;19.59;49.21;101210.34;;;;-59
2020/12/26 14:04:12;;;;;;;1.83;1.73;;;;;;;19.60;49.19;101208.64;;;;-59
2020/12/26 14:07:10;;;;;;;2.77;1.90;;;;;;;19.61;49.05;101187.83;;;;-59
2020/12/26 14:10:10;;;;;;;2.01;1.81;;;;;;;19.61;49.06;101189.30;;;;-59
2020/12/26 14:13:09;;;;;;;1.80;1.70;;;;;;;19.61;49.16;101180.84;;;;-57
2020/12/26 14:16:10;;;;;;;1.95;1.73;;;;;;;19.61;49.04;101176.16;;;;-59
2020/12/26 14:19:10;;;;;;;2.04;1.82;;;;;;;19.62;49.15;101175.02;;;;-61
2020/12/26 14:22:09;;;;;;;2.53;1.77;;;;;;;19.65;49.29;101176.03;;;;-55
2020/12/26 14:25:09;;;;;;;1.93;1.71;;;;;;;19.67;49.29;101177.94;;;;-58
2020/12/26 14:28:10;;;;;;;2.91;1.73;;;;;;;19.70;49.35;101181.50;;;;-55
2020/12/26 14:31:10;;;;;;;1.77;1.65;;;;;;;19.73;49.46;101184.58;;;;-46
2020/12/26 14:34:09;;;;;;;1.91;1.73;;;;;;;19.77;50.21;101188.63;;;;-52
2020/12/26 14:37:09;;;;;;;2.21;1.80;;;;;;;19.82;50.26;101178.97;;;;-47
2020/12/26 14:40:12;;;;;;;3.11;1.89;;;;;;;19.85;50.47;101182.02;;;;-53
2020/12/26 14:43:10;;;;;;;2.25;1.96;;;;;;;19.89;50.66;101179.81;;;;-57
2020/12/26 14:46:09;;;;;;;4.05;2.04;;;;;;;19.90;50.40;101177.16;;;;-53
2020/12/26 14:49:09;;;;;;;2.57;2.00;;;;;;;19.89;49.60;101175.25;;;;-53
2020/12/26 14:52:10;;;;;;;2.86;2.07;;;;;;;19.89;49.51;101177.28;;;;-52
2020/12/26 14:55:11;;;;;;;2.65;1.87;;;;;;;19.87;49.35;101174.32;;;;-53
2020/12/26 14:58:09;;;;;;;2.40;1.81;;;;;;;19.85;49.21;101172.91;;;;-52
2020/12/26 15:01:09;;;;;;;2.99;1.84;;;;;;;19.85;49.24;101168.11;;;;-53
2020/12/26 15:04:10;;;;;;;3.18;1.75;;;;;;;19.84;49.21;101167.10;;;;-53
2020/12/26 15:07:10;;;;;;;2.01;1.81;;;;;;;19.83;49.07;101166.45;;;;-52
2020/12/26 15:10:09;;;;;;;2.16;1.80;;;;;;;19.81;49.19;101160.16;;;;-52
2020/12/26 15:13:09;;;;;;;2.01;1.77;;;;;;;19.81;49.07;101155.77;;;;-53
2020/12/26 15:16:11;;;;;;;2.05;1.81;;;;;;;19.79;49.10;101147.02;;;;-52
2020/12/26 15:19:10;;;;;;;2.50;2.00;;;;;;;19.78;48.98;101141.58;;;;-51
2020/12/26 15:22:09;;;;;;;2.97;2.10;;;;;;;19.78;48.73;101145.97;;;;-52
2020/12/26 15:25:09;;;;;;;2.97;2.27;;;;;;;19.78;48.56;101149.30;;;;-49
2020/12/26 15:28:10;;;;;;;2.53;2.10;;;;;;;19.78;48.56;101146.45;;;;-50
2020/12/26 15:31:10;;;;;;;3.38;2.01;;;;;;;19.78;48.58;101148.48;;;;-53
2020/12/26 15:34:09;;;;;;;3.64;2.15;;;;;;;19.78;48.43;101145.16;;;;-51
2020/12/26 15:37:09;;;;;;;2.21;1.99;;;;;;;19.76;48.78;101145.20;;;;-51
2020/12/26 15:40:10;;;;;;;4.15;2.00;;;;;;;19.78;48.87;101145.88;;;;-51
2020/12/26 15:43:11;;;;;;;6.78;2.18;;;;;;;19.78;48.98;101140.11;;;;-43
2020/12/26 15:46:10;;;;;;;8.00;2.25;;;;;;;19.79;48.69;101133.12;;;;-53
2020/12/26 15:49:10;;;;;;;2.53;2.03;;;;;;;19.80;48.95;101127.78;;;;-55
2020/12/26 15:52:10;;;;;;;2.66;2.08;;;;;;;19.81;48.93;101123.88;;;;-57
2020/12/26 15:55:09;;;;;;;2.59;2.00;;;;;;;19.82;49.08;101123.09;;;;-59
2020/12/26 15:58:10;;;;;;;3.22;2.10;;;;;;;19.83;49.08;101119.59;;;;-58
2020/12/26 16:01:09;;;;;;;2.35;2.05;;;;;;;19.84;49.24;101125.81;;;;-59
2020/12/26 16:04:10;;;;;;;2.50;2.10;;;;;;;19.85;49.38;101126.87;;;;-53
2020/12/26 16:07:09;;;;;;;3.04;2.09;;;;;;;19.86;49.24;101122.27;;;;-53
2020/12/26 16:10:09;;;;;;;2.69;1.95;;;;;;;19.86;49.27;101114.21;;;;-57
2020/12/26 16:13:10;;;;;;;3.10;2.05;;;;;;;19.87;49.37;101125.52;;;;-54
2020/12/26 16:16:10;;;;;;;3.08;2.21;;;;;;;19.87;49.31;101132.59;;;;-51
2020/12/26 16:19:09;;;;;;;2.39;2.09;;;;;;;19.86;49.28;101130.07;;;;-56
2020/12/26 16:22:09;;;;;;;2.25;1.97;;;;;;;19.86;49.33;101123.89;;;;-56
2020/12/26 16:25:10;;;;;;;2.17;1.96;;;;;;;19.86;49.25;101131.70;;;;-50
2020/12/26 16:28:11;;;;;;;2.91;1.99;;;;;;;19.86;49.46;101137.96;;;;-51
2020/12/26 16:31:09;;;;;;;2.17;1.96;;;;;;;19.87;49.34;101139.02;;;;-58
2020/12/26 16:34:09;;;;;;;2.57;1.93;;;;;;;19.87;49.46;101138.20;;;;-52
2020/12/26 16:37:10;;;;;;;3.93;2.11;;;;;;;19.86;49.35;101134.63;;;;-56
2020/12/26 16:40:10;;;;;;;4.16;2.21;;;;;;;19.87;49.47;101138.20;;;;-53
2020/12/26 16:43:09;;;;;;;3.01;2.05;;;;;;;19.87;49.37;101132.43;;;;-49